AVA5325 SKBO-SKRG
Flight info
| Callsign | AVA5325 |
|---|---|
| Flight time | 0h 28m |
| Altitude | 19000 |
| Route | TOBKI4R VASIL W36 NIRSO NIRSO3C |
| Aircraft | A320/M-SDE3FGHIRWY/LB1 |
Departure
| Time | 2026-04-25 19:55 |
|---|---|
| Airport | El Dorado International Airport (SKBO) |
Arrival
| Time | 2026-04-25 20:23 |
|---|---|
| Airport | Jose Maria Córdova International Airport (SKRG) |
| Time | Latitude | Longitude | Altitude | Speed | Heading |
|---|---|---|---|---|---|
| 2026-04-25 19:43 | 4.69861 | -74.14735 | 8346 ft | 12 kts | 309° |
| 2026-04-25 19:44 | 4.69901 | -74.14785 | 8346 ft | 4 kts | 308° |
| 2026-04-25 19:44 | 4.69902 | -74.14786 | 8346 ft | 2 kts | 308° |
| 2026-04-25 19:45 | 4.69918 | -74.14808 | 8346 ft | 0 kts | 306° |
| 2026-04-25 19:45 | 4.69935 | -74.14835 | 8346 ft | 13 kts | 297° |
| 2026-04-25 19:46 | 4.69945 | -74.14926 | 8346 ft | 13 kts | 256° |
| 2026-04-25 19:46 | 4.69981 | -74.15007 | 8349 ft | 13 kts | 306° |
| 2026-04-25 19:46 | 4.70036 | -74.15080 | 8346 ft | 14 kts | 306° |
| 2026-04-25 19:46 | 4.70096 | -74.15161 | 8346 ft | 15 kts | 307° |
| 2026-04-25 19:47 | 4.70159 | -74.15243 | 8346 ft | 15 kts | 308° |
| 2026-04-25 19:47 | 4.70221 | -74.15328 | 8346 ft | 10 kts | 306° |
| 2026-04-25 19:47 | 4.70222 | -74.15394 | 8348 ft | 11 kts | 237° |
| 2026-04-25 19:47 | 4.70216 | -74.15459 | 8350 ft | 10 kts | 295° |
| 2026-04-25 19:48 | 4.70263 | -74.15519 | 8346 ft | 11 kts | 309° |
| 2026-04-25 19:48 | 4.70313 | -74.15583 | 8346 ft | 12 kts | 307° |
| 2026-04-25 19:48 | 4.70367 | -74.15654 | 8346 ft | 13 kts | 307° |
| 2026-04-25 19:48 | 4.70424 | -74.15729 | 8346 ft | 14 kts | 307° |
| 2026-04-25 19:49 | 4.70484 | -74.15809 | 8346 ft | 15 kts | 308° |
| 2026-04-25 19:49 | 4.70506 | -74.15838 | 8346 ft | 15 kts | 307° |
| 2026-04-25 19:49 | 4.70615 | -74.15984 | 8346 ft | 16 kts | 307° |
| 2026-04-25 19:49 | 4.70686 | -74.16074 | 8346 ft | 17 kts | 308° |
| 2026-04-25 19:50 | 4.70834 | -74.16270 | 8346 ft | 18 kts | 307° |
| 2026-04-25 19:50 | 4.70912 | -74.16373 | 8349 ft | 19 kts | 307° |
| 2026-04-25 19:50 | 4.70993 | -74.16480 | 8346 ft | 20 kts | 307° |
| 2026-04-25 19:51 | 4.71078 | -74.16592 | 8348 ft | 20 kts | 307° |
| 2026-04-25 19:51 | 4.71161 | -74.16702 | 8346 ft | 11 kts | 307° |
| 2026-04-25 19:51 | 4.71173 | -74.16719 | 8346 ft | 2 kts | 307° |
| 2026-04-25 19:51 | 4.71200 | -74.16764 | 8349 ft | 14 kts | 288° |
| 2026-04-25 19:52 | 4.71145 | -74.16837 | 8346 ft | 14 kts | 214° |
| 2026-04-25 19:52 | 4.71057 | -74.16881 | 8346 ft | 15 kts | 180° |
| 2026-04-25 19:52 | 4.70982 | -74.16820 | 8348 ft | 14 kts | 125° |
| 2026-04-25 19:52 | 4.70974 | -74.16809 | 8349 ft | 0 kts | 128° |
| 2026-04-25 19:54 | 4.70967 | -74.16800 | 8349 ft | 8 kts | 127° |
| 2026-04-25 19:54 | 4.70775 | -74.16548 | 8351 ft | 87 kts | 127° |
| 2026-04-25 19:54 | 4.70252 | -74.15860 | 8346 ft | 159 kts | 128° |
| 2026-04-25 19:54 | 4.70016 | -74.15547 | 8350 ft | 178 kts | 126° |
| 2026-04-25 19:55 | 4.68623 | -74.13688 | 9461 ft | 209 kts | 131° |
| 2026-04-25 19:55 | 4.67383 | -74.12889 | 10100 ft | 220 kts | 168° |
| 2026-04-25 19:55 | 4.65840 | -74.13054 | 10287 ft | 237 kts | 208° |
| 2026-04-25 19:55 | 4.64641 | -74.14215 | 10678 ft | 245 kts | 237° |
| 2026-04-25 19:56 | 4.63913 | -74.15534 | 11256 ft | 246 kts | 244° |
| 2026-04-25 19:57 | 4.63447 | -74.16524 | 11657 ft | 248 kts | 246° |
| 2026-04-25 19:57 | 4.63409 | -74.16606 | 11686 ft | 248 kts | 246° |
| 2026-04-25 19:58 | 4.63250 | -74.16966 | 11936 ft | 239 kts | 248° |
| 2026-04-25 19:58 | 4.62589 | -74.18469 | 12686 ft | 241 kts | 245° |
| 2026-04-25 19:58 | 4.61846 | -74.19985 | 13196 ft | 249 kts | 244° |
| 2026-04-25 19:58 | 4.61315 | -74.21651 | 13673 ft | 261 kts | 261° |
| 2026-04-25 19:59 | 4.61019 | -74.23436 | 13864 ft | 283 kts | 260° |
| 2026-04-25 19:59 | 4.60659 | -74.25450 | 14025 ft | 306 kts | 259° |
| 2026-04-25 19:59 | 4.60289 | -74.27630 | 14154 ft | 329 kts | 262° |
| 2026-04-25 19:59 | 4.60050 | -74.29963 | 14318 ft | 348 kts | 265° |
| 2026-04-25 20:00 | 4.59902 | -74.32401 | 14798 ft | 355 kts | 267° |
| 2026-04-25 20:00 | 4.59864 | -74.33231 | 14969 ft | 356 kts | 268° |
| 2026-04-25 20:00 | 4.59704 | -74.37433 | 15882 ft | 363 kts | 268° |
| 2026-04-25 20:00 | 4.59733 | -74.39938 | 16413 ft | 366 kts | 279° |
| 2026-04-25 20:01 | 4.61993 | -74.44542 | 17532 ft | 374 kts | 306° |
| 2026-04-25 20:01 | 4.63635 | -74.46576 | 18087 ft | 377 kts | 310° |
| 2026-04-25 20:01 | 4.65388 | -74.48547 | 18583 ft | 381 kts | 312° |
| 2026-04-25 20:02 | 4.66589 | -74.49879 | 18836 ft | 383 kts | 311° |
| 2026-04-25 20:02 | 4.68338 | -74.51869 | 18941 ft | 383 kts | 310° |
| 2026-04-25 20:02 | 4.70045 | -74.53902 | 18978 ft | 374 kts | 309° |
| 2026-04-25 20:02 | 4.71656 | -74.55904 | 18986 ft | 372 kts | 308° |
| 2026-04-25 20:03 | 4.73245 | -74.57937 | 18985 ft | 371 kts | 307° |
| 2026-04-25 20:03 | 4.74911 | -74.59925 | 18986 ft | 371 kts | 315° |
| 2026-04-25 20:03 | 4.76880 | -74.61581 | 18987 ft | 371 kts | 322° |
| 2026-04-25 20:03 | 4.78948 | -74.63130 | 18985 ft | 371 kts | 322° |
| 2026-04-25 20:04 | 4.81022 | -74.64673 | 18974 ft | 371 kts | 323° |
| 2026-04-25 20:04 | 4.83093 | -74.66209 | 18974 ft | 371 kts | 323° |
| 2026-04-25 20:04 | 4.85171 | -74.67754 | 18977 ft | 371 kts | 323° |
| 2026-04-25 20:04 | 4.87220 | -74.69321 | 18975 ft | 371 kts | 322° |
| 2026-04-25 20:05 | 4.89254 | -74.70912 | 18969 ft | 371 kts | 321° |
| 2026-04-25 20:05 | 4.91284 | -74.72519 | 18974 ft | 371 kts | 321° |
| 2026-04-25 20:05 | 4.93224 | -74.74218 | 18965 ft | 370 kts | 313° |
| 2026-04-25 20:05 | 4.94788 | -74.76241 | 18963 ft | 369 kts | 301° |
| 2026-04-25 20:06 | 4.95973 | -74.78519 | 18980 ft | 369 kts | 295° |
| 2026-04-25 20:06 | 4.97095 | -74.80836 | 18975 ft | 369 kts | 296° |
| 2026-04-25 20:06 | 4.98222 | -74.83148 | 18971 ft | 369 kts | 296° |
| 2026-04-25 20:06 | 4.99352 | -74.85458 | 18967 ft | 369 kts | 296° |
| 2026-04-25 20:07 | 5.00480 | -74.87766 | 18959 ft | 369 kts | 296° |
| 2026-04-25 20:07 | 5.01597 | -74.90050 | 18952 ft | 369 kts | 296° |
| 2026-04-25 20:07 | 5.02743 | -74.92398 | 18932 ft | 378 kts | 296° |
| 2026-04-25 20:07 | 5.03925 | -74.94825 | 18932 ft | 398 kts | 296° |
| 2026-04-25 20:08 | 5.05166 | -74.97379 | 18931 ft | 414 kts | 296° |
| 2026-04-25 20:08 | 5.06450 | -75.00025 | 18932 ft | 429 kts | 296° |
| 2026-04-25 20:08 | 5.07779 | -75.02760 | 19000 ft | 442 kts | 296° |
| 2026-04-25 20:08 | 5.09142 | -75.05566 | 19004 ft | 454 kts | 296° |
| 2026-04-25 20:09 | 5.10530 | -75.08422 | 19043 ft | 464 kts | 296° |
| 2026-04-25 20:09 | 5.11977 | -75.11392 | 19042 ft | 474 kts | 296° |
| 2026-04-25 20:09 | 5.13419 | -75.14350 | 19118 ft | 465 kts | 296° |
| 2026-04-25 20:09 | 5.14790 | -75.17153 | 19100 ft | 427 kts | 297° |
| 2026-04-25 20:10 | 5.16302 | -75.19536 | 19082 ft | 392 kts | 309° |
| 2026-04-25 20:10 | 5.18049 | -75.21543 | 19114 ft | 376 kts | 311° |
| 2026-04-25 20:10 | 5.19774 | -75.23498 | 19121 ft | 373 kts | 311° |
| 2026-04-25 20:10 | 5.21484 | -75.25441 | 19130 ft | 373 kts | 311° |
| 2026-04-25 20:11 | 5.23159 | -75.27344 | 19125 ft | 371 kts | 311° |
| 2026-04-25 20:11 | 5.24873 | -75.29286 | 19124 ft | 371 kts | 311° |
| 2026-04-25 20:11 | 5.26573 | -75.31207 | 19123 ft | 371 kts | 311° |
| 2026-04-25 20:11 | 5.28284 | -75.33141 | 19117 ft | 370 kts | 311° |
| 2026-04-25 20:12 | 5.30001 | -75.35085 | 19110 ft | 370 kts | 311° |
| 2026-04-25 20:12 | 5.31742 | -75.36986 | 19078 ft | 371 kts | 317° |
| 2026-04-25 20:12 | 5.33806 | -75.38536 | 19064 ft | 371 kts | 330° |
| 2026-04-25 20:12 | 5.35338 | -75.39282 | 19050 ft | 371 kts | 339° |
| 2026-04-25 20:13 | 5.38697 | -75.40055 | 19019 ft | 372 kts | 355° |
| 2026-04-25 20:13 | 5.41282 | -75.40204 | 19018 ft | 372 kts | 356° |
| 2026-04-25 20:13 | 5.43852 | -75.40345 | 19017 ft | 372 kts | 356° |
| 2026-04-25 20:13 | 5.46433 | -75.40485 | 18636 ft | 371 kts | 356° |
| 2026-04-25 20:14 | 5.49022 | -75.40629 | 18011 ft | 373 kts | 356° |
| 2026-04-25 20:14 | 5.51644 | -75.40775 | 17389 ft | 375 kts | 356° |
| 2026-04-25 20:14 | 5.54203 | -75.40915 | 17054 ft | 368 kts | 356° |
| 2026-04-25 20:14 | 5.56792 | -75.41056 | 16563 ft | 367 kts | 355° |
| 2026-04-25 20:15 | 5.59335 | -75.41199 | 16050 ft | 367 kts | 355° |
| 2026-04-25 20:15 | 5.61830 | -75.41340 | 15734 ft | 360 kts | 356° |
| 2026-04-25 20:15 | 5.64331 | -75.41480 | 15271 ft | 359 kts | 355° |
| 2026-04-25 20:15 | 5.66818 | -75.41620 | 14851 ft | 357 kts | 355° |
| 2026-04-25 20:16 | 5.69299 | -75.41756 | 14420 ft | 355 kts | 355° |
| 2026-04-25 20:16 | 5.71726 | -75.41888 | 14287 ft | 344 kts | 355° |
| 2026-04-25 20:16 | 5.74078 | -75.42017 | 14169 ft | 333 kts | 355° |
| 2026-04-25 20:16 | 5.76347 | -75.42142 | 14054 ft | 322 kts | 354° |
| 2026-04-25 20:17 | 5.78605 | -75.42178 | 13664 ft | 323 kts | 1° |
| 2026-04-25 20:17 | 5.80840 | -75.42082 | 13226 ft | 324 kts | 360° |
| 2026-04-25 20:17 | 5.83087 | -75.42076 | 12759 ft | 326 kts | 357° |
| 2026-04-25 20:17 | 5.85353 | -75.42108 | 12352 ft | 328 kts | 358° |
| 2026-04-25 20:18 | 5.87625 | -75.42127 | 11939 ft | 318 kts | 358° |
| 2026-04-25 20:18 | 5.89782 | -75.42138 | 11585 ft | 306 kts | 357° |
| 2026-04-25 20:18 | 5.91875 | -75.42151 | 11227 ft | 297 kts | 358° |
| 2026-04-25 20:18 | 5.93915 | -75.42165 | 10883 ft | 286 kts | 357° |
| 2026-04-25 20:19 | 5.95874 | -75.42178 | 10541 ft | 276 kts | 358° |
| 2026-04-25 20:19 | 5.97765 | -75.42191 | 10235 ft | 267 kts | 359° |
| 2026-04-25 20:19 | 5.99583 | -75.42201 | 9933 ft | 259 kts | 357° |
| 2026-04-25 20:19 | 6.01368 | -75.42213 | 9586 ft | 249 kts | 358° |
| 2026-04-25 20:20 | 6.03021 | -75.42223 | 9324 ft | 227 kts | 358° |
| 2026-04-25 20:20 | 6.04505 | -75.42233 | 9064 ft | 205 kts | 358° |
| 2026-04-25 20:20 | 6.05867 | -75.42242 | 8816 ft | 188 kts | 359° |
| 2026-04-25 20:20 | 6.07132 | -75.42251 | 8580 ft | 171 kts | 359° |
| 2026-04-25 20:21 | 6.08266 | -75.42258 | 8372 ft | 162 kts | 359° |
| 2026-04-25 20:21 | 6.09390 | -75.42266 | 8167 ft | 159 kts | 359° |
| 2026-04-25 20:21 | 6.10487 | -75.42273 | 7956 ft | 157 kts | 359° |
| 2026-04-25 20:21 | 6.11583 | -75.42280 | 7731 ft | 156 kts | 359° |
| 2026-04-25 20:22 | 6.12666 | -75.42287 | 7502 ft | 155 kts | 359° |
| 2026-04-25 20:22 | 6.13380 | -75.42292 | 7351 ft | 155 kts | 360° |
| 2026-04-25 20:22 | 6.14814 | -75.42297 | 7052 ft | 155 kts | 359° |
| 2026-04-25 20:22 | 6.15827 | -75.42301 | 6979 ft | 129 kts | 358° |
| 2026-04-25 20:23 | 6.16556 | -75.42308 | 6984 ft | 80 kts | 360° |
| 2026-04-25 20:23 | 6.16741 | -75.42311 | 6994 ft | 2 kts | 358° |
| 2026-04-25 20:23 | 6.16795 | -75.42312 | 6997 ft | 15 kts | 358° |
| 2026-04-25 20:23 | 6.16875 | -75.42321 | 7003 ft | 8 kts | 348° |
| 2026-04-25 20:24 | 6.16906 | -75.42327 | 7001 ft | 0 kts | 348° |
| 2026-04-25 20:24 | 6.16927 | -75.42331 | 7002 ft | 12 kts | 348° |
| 2026-04-25 20:24 | 6.17005 | -75.42358 | 7011 ft | 9 kts | 337° |
| 2026-04-25 20:24 | 6.17045 | -75.42377 | 7015 ft | 3 kts | 333° |
| 2026-04-25 20:25 | 6.17056 | -75.42382 | 7011 ft | 5 kts | 333° |
| 2026-04-25 20:25 | 6.17108 | -75.42412 | 7014 ft | 8 kts | 329° |
| 2026-04-25 20:25 | 6.17142 | -75.42433 | 7017 ft | 4 kts | 327° |
| 2026-04-25 20:25 | 6.17176 | -75.42467 | 7017 ft | 7 kts | 297° |
| 2026-04-25 20:26 | 6.17183 | -75.42496 | 7014 ft | 3 kts | 279° |
| 2026-04-25 20:26 | 6.17185 | -75.42529 | 7014 ft | 6 kts | 268° |
| 2026-04-25 20:26 | 6.17184 | -75.42553 | 7015 ft | 0 kts | 268° |
| 2026-04-25 20:26 | 6.17184 | -75.42575 | 7016 ft | 10 kts | 268° |
| 2026-04-25 20:27 | 6.17191 | -75.42606 | 7023 ft | 4 kts | 311° |
| 2026-04-25 20:27 | 6.17227 | -75.42618 | 7019 ft | 0 kts | 348° |
| 2026-04-25 20:27 | 6.17229 | -75.42624 | 7018 ft | 4 kts | 302° |
| 2026-04-25 20:27 | 6.17226 | -75.42644 | 7019 ft | 1 kts | 245° |
| 2026-04-25 20:28 | 6.17220 | -75.42658 | 7019 ft | 3 kts | 243° |
| 2026-04-25 20:28 | 6.17214 | -75.42668 | 7018 ft | 0 kts | 244° |
| 2026-04-25 20:28 | 6.17208 | -75.42681 | 7022 ft | 2 kts | 244° |
| 2026-04-25 20:28 | 6.17205 | -75.42689 | 7022 ft | 0 kts | 246° |